sensor_id;sensor_type;location;lat;lon;timestamp;temperature;humidity
7502;DHT22;3792;47.740;7.606;2024-02-26T00:00:27;8.40;99.90
7502;DHT22;3792;47.740;7.606;2024-02-26T00:02:57;8.40;99.90
7502;DHT22;3792;47.740;7.606;2024-02-26T00:05:24;8.30;99.90
7502;DHT22;3792;47.740;7.606;2024-02-26T00:07:51;8.30;99.90
7502;DHT22;3792;47.740;7.606;2024-02-26T00:10:18;8.40;99.90
7502;DHT22;3792;47.740;7.606;2024-02-26T00:12:45;8.40;99.90
7502;DHT22;3792;47.740;7.606;2024-02-26T00:15:12;8.50;99.90
7502;DHT22;3792;47.740;7.606;2024-02-26T00:17:39;8.50;99.90
7502;DHT22;3792;47.740;7.606;2024-02-26T00:20:10;8.60;99.90
7502;DHT22;3792;47.740;7.606;2024-02-26T00:22:37;8.60;99.90
7502;DHT22;3792;47.740;7.606;2024-02-26T00:25:05;8.70;99.90
7502;DHT22;3792;47.740;7.606;2024-02-26T00:27:32;8.70;99.90
7502;DHT22;3792;47.740;7.606;2024-02-26T00:29:59;8.70;99.90
7502;DHT22;3792;47.740;7.606;2024-02-26T00:32:26;8.70;99.90
7502;DHT22;3792;47.740;7.606;2024-02-26T00:34:53;8.70;99.90
7502;DHT22;3792;47.740;7.606;2024-02-26T00:37:22;8.70;99.90
7502;DHT22;3792;47.740;7.606;2024-02-26T00:39:49;8.80;99.90
7502;DHT22;3792;47.740;7.606;2024-02-26T00:42:16;8.70;99.90
7502;DHT22;3792;47.740;7.606;2024-02-26T00:44:43;8.70;99.90
7502;DHT22;3792;47.740;7.606;2024-02-26T00:47:10;8.70;99.90
7502;DHT22;3792;47.740;7.606;2024-02-26T00:49:37;8.70;99.90
7502;DHT22;3792;47.740;7.606;2024-02-26T00:52:04;8.70;99.90
7502;DHT22;3792;47.740;7.606;2024-02-26T00:54:33;8.70;99.90
7502;DHT22;3792;47.740;7.606;2024-02-26T00:57:00;8.70;99.90
7502;DHT22;3792;47.740;7.606;2024-02-26T00:59:27;8.80;99.90
7502;DHT22;3792;47.740;7.606;2024-02-26T01:01:54;8.70;99.90
7502;DHT22;3792;47.740;7.606;2024-02-26T01:04:21;8.70;99.90
7502;DHT22;3792;47.740;7.606;2024-02-26T01:06:48;8.80;99.90
7502;DHT22;3792;47.740;7.606;2024-02-26T01:09:15;8.80;99.90
7502;DHT22;3792;47.740;7.606;2024-02-26T01:11:45;8.80;99.90
7502;DHT22;3792;47.740;7.606;2024-02-26T01:14:12;8.80;99.90
7502;DHT22;3792;47.740;7.606;2024-02-26T01:16:40;8.80;99.90
7502;DHT22;3792;47.740;7.606;2024-02-26T01:19:07;8.90;99.90
7502;DHT22;3792;47.740;7.606;2024-02-26T01:21:34;8.90;99.90
7502;DHT22;3792;47.740;7.606;2024-02-26T01:24:01;8.90;99.90
7502;DHT22;3792;47.740;7.606;2024-02-26T01:26:28;9.00;99.90
7502;DHT22;3792;47.740;7.606;2024-02-26T01:28:56;9.00;99.90
7502;DHT22;3792;47.740;7.606;2024-02-26T01:31:23;9.00;99.90
7502;DHT22;3792;47.740;7.606;2024-02-26T01:33:50;9.00;99.90
7502;DHT22;3792;47.740;7.606;2024-02-26T01:36:18;9.00;99.90
7502;DHT22;3792;47.740;7.606;2024-02-26T01:38:45;9.10;99.90
7502;DHT22;3792;47.740;7.606;2024-02-26T01:41:13;9.10;99.90
7502;DHT22;3792;47.740;7.606;2024-02-26T01:43:40;9.00;99.90
7502;DHT22;3792;47.740;7.606;2024-02-26T01:46:11;9.00;99.90
7502;DHT22;3792;47.740;7.606;2024-02-26T01:48:40;8.90;99.90
7502;DHT22;3792;47.740;7.606;2024-02-26T01:51:08;8.90;99.90
7502;DHT22;3792;47.740;7.606;2024-02-26T01:53:35;8.70;99.90
7502;DHT22;3792;47.740;7.606;2024-02-26T01:56:02;8.60;99.90
7502;DHT22;3792;47.740;7.606;2024-02-26T01:58:30;8.40;99.90
7502;DHT22;3792;47.740;7.606;2024-02-26T02:00:58;8.30;99.90
7502;DHT22;3792;47.740;7.606;2024-02-26T02:03:26;8.30;99.90
7502;DHT22;3792;47.740;7.606;2024-02-26T02:05:54;8.30;99.90
7502;DHT22;3792;47.740;7.606;2024-02-26T02:08:22;8.20;99.90
7502;DHT22;3792;47.740;7.606;2024-02-26T02:10:49;8.20;99.90
7502;DHT22;3792;47.740;7.606;2024-02-26T02:13:17;8.20;99.90
7502;DHT22;3792;47.740;7.606;2024-02-26T02:15:44;8.20;99.90
7502;DHT22;3792;47.740;7.606;2024-02-26T02:18:11;8.10;99.90
7502;DHT22;3792;47.740;7.606;2024-02-26T02:20:39;8.00;99.90
7502;DHT22;3792;47.740;7.606;2024-02-26T02:23:06;8.00;99.90
7502;DHT22;3792;47.740;7.606;2024-02-26T02:25:33;8.00;99.90
7502;DHT22;3792;47.740;7.606;2024-02-26T02:28:01;8.10;99.90
7502;DHT22;3792;47.740;7.606;2024-02-26T02:30:29;8.00;99.90
7502;DHT22;3792;47.740;7.606;2024-02-26T02:32:57;8.00;99.90
7502;DHT22;3792;47.740;7.606;2024-02-26T02:35:25;8.00;99.90
7502;DHT22;3792;47.740;7.606;2024-02-26T02:37:54;8.00;99.90
7502;DHT22;3792;47.740;7.606;2024-02-26T02:40:21;8.00;99.90
7502;DHT22;3792;47.740;7.606;2024-02-26T02:42:48;7.90;99.90
7502;DHT22;3792;47.740;7.606;2024-02-26T02:45:15;8.00;99.90
7502;DHT22;3792;47.740;7.606;2024-02-26T02:47:42;8.00;99.90
7502;DHT22;3792;47.740;7.606;2024-02-26T02:50:09;8.00;99.90
7502;DHT22;3792;47.740;7.606;2024-02-26T02:52:36;8.00;99.90
7502;DHT22;3792;47.740;7.606;2024-02-26T02:55:05;7.90;99.90
7502;DHT22;3792;47.740;7.606;2024-02-26T02:57:33;7.90;99.90
7502;DHT22;3792;47.740;7.606;2024-02-26T03:00:00;7.90;99.90
7502;DHT22;3792;47.740;7.606;2024-02-26T03:02:29;7.90;99.90
7502;DHT22;3792;47.740;7.606;2024-02-26T03:04:56;7.90;99.90
7502;DHT22;3792;47.740;7.606;2024-02-26T03:07:23;7.90;99.90
7502;DHT22;3792;47.740;7.606;2024-02-26T03:09:50;7.90;99.90
7502;DHT22;3792;47.740;7.606;2024-02-26T03:12:18;7.90;99.90
7502;DHT22;3792;47.740;7.606;2024-02-26T03:14:45;7.90;99.90
7502;DHT22;3792;47.740;7.606;2024-02-26T03:17:13;7.90;99.90
7502;DHT22;3792;47.740;7.606;2024-02-26T03:19:40;7.80;99.90
7502;DHT22;3792;47.740;7.606;2024-02-26T03:22:07;7.80;99.90
7502;DHT22;3792;47.740;7.606;2024-02-26T03:24:34;7.80;99.90
7502;DHT22;3792;47.740;7.606;2024-02-26T03:27:01;7.90;99.90
7502;DHT22;3792;47.740;7.606;2024-02-26T03:29:32;7.80;99.90
7502;DHT22;3792;47.740;7.606;2024-02-26T03:31:59;7.80;99.90
7502;DHT22;3792;47.740;7.606;2024-02-26T03:34:26;7.80;99.90
7502;DHT22;3792;47.740;7.606;2024-02-26T03:36:53;7.80;99.90
7502;DHT22;3792;47.740;7.606;2024-02-26T03:39:20;7.70;99.90
7502;DHT22;3792;47.740;7.606;2024-02-26T03:41:48;7.70;99.90
7502;DHT22;3792;47.740;7.606;2024-02-26T03:44:15;7.70;99.90
7502;DHT22;3792;47.740;7.606;2024-02-26T03:46:43;7.70;99.90
7502;DHT22;3792;47.740;7.606;2024-02-26T03:49:10;7.70;99.90
7502;DHT22;3792;47.740;7.606;2024-02-26T03:51:39;7.80;99.90
7502;DHT22;3792;47.740;7.606;2024-02-26T03:54:06;7.70;99.90
7502;DHT22;3792;47.740;7.606;2024-02-26T03:56:33;7.70;99.90
7502;DHT22;3792;47.740;7.606;2024-02-26T03:59:00;7.70;99.90
7502;DHT22;3792;47.740;7.606;2024-02-26T04:01:28;7.60;99.90
7502;DHT22;3792;47.740;7.606;2024-02-26T04:03:56;7.50;99.90
7502;DHT22;3792;47.740;7.606;2024-02-26T04:06:23;7.50;99.90
7502;DHT22;3792;47.740;7.606;2024-02-26T04:08:50;7.50;99.90
7502;DHT22;3792;47.740;7.606;2024-02-26T04:11:17;7.40;99.90
7502;DHT22;3792;47.740;7.606;2024-02-26T04:13:44;7.40;99.90
7502;DHT22;3792;47.740;7.606;2024-02-26T04:16:15;7.40;99.90
7502;DHT22;3792;47.740;7.606;2024-02-26T04:18:42;7.40;99.90
7502;DHT22;3792;47.740;7.606;2024-02-26T04:21:10;7.30;99.90
7502;DHT22;3792;47.740;7.606;2024-02-26T04:23:37;7.20;99.90
7502;DHT22;3792;47.740;7.606;2024-02-26T04:26:05;7.20;99.90
7502;DHT22;3792;47.740;7.606;2024-02-26T04:28:32;7.20;99.90
7502;DHT22;3792;47.740;7.606;2024-02-26T04:30:59;7.10;99.90
7502;DHT22;3792;47.740;7.606;2024-02-26T04:33:26;7.10;99.90
7502;DHT22;3792;47.740;7.606;2024-02-26T04:35:53;7.00;99.90
7502;DHT22;3792;47.740;7.606;2024-02-26T04:38:21;7.10;99.90
7502;DHT22;3792;47.740;7.606;2024-02-26T04:40:49;7.00;99.90
7502;DHT22;3792;47.740;7.606;2024-02-26T04:43:16;7.00;99.90
7502;DHT22;3792;47.740;7.606;2024-02-26T04:45:43;7.10;99.90
7502;DHT22;3792;47.740;7.606;2024-02-26T04:48:10;7.10;99.90
7502;DHT22;3792;47.740;7.606;2024-02-26T04:50:37;7.20;99.90
7502;DHT22;3792;47.740;7.606;2024-02-26T04:53:04;7.20;99.90
7502;DHT22;3792;47.740;7.606;2024-02-26T04:55:33;7.20;99.90
7502;DHT22;3792;47.740;7.606;2024-02-26T04:58:00;7.30;99.90
7502;DHT22;3792;47.740;7.606;2024-02-26T05:00:27;7.30;99.90
7502;DHT22;3792;47.740;7.606;2024-02-26T05:02:54;7.40;99.90
7502;DHT22;3792;47.740;7.606;2024-02-26T05:05:21;7.30;99.90
7502;DHT22;3792;47.740;7.606;2024-02-26T05:07:48;7.40;99.90
7502;DHT22;3792;47.740;7.606;2024-02-26T05:10:15;7.40;99.90
7502;DHT22;3792;47.740;7.606;2024-02-26T05:12:43;7.40;99.90
7502;DHT22;3792;47.740;7.606;2024-02-26T05:15:10;7.40;99.90
7502;DHT22;3792;47.740;7.606;2024-02-26T05:17:41;7.40;99.90
7502;DHT22;3792;47.740;7.606;2024-02-26T05:20:09;7.50;99.90
7502;DHT22;3792;47.740;7.606;2024-02-26T05:22:37;7.50;99.90
7502;DHT22;3792;47.740;7.606;2024-02-26T05:25:04;7.60;99.90
7502;DHT22;3792;47.740;7.606;2024-02-26T05:27:31;7.50;99.90
7502;DHT22;3792;47.740;7.606;2024-02-26T05:29:59;7.50;99.90
7502;DHT22;3792;47.740;7.606;2024-02-26T05:32:26;7.40;99.90
7502;DHT22;3792;47.740;7.606;2024-02-26T05:34:53;7.40;99.90
7502;DHT22;3792;47.740;7.606;2024-02-26T05:37:20;7.50;99.90
7502;DHT22;3792;47.740;7.606;2024-02-26T05:39:48;7.50;99.90
7502;DHT22;3792;47.740;7.606;2024-02-26T05:42:15;7.50;99.90
7502;DHT22;3792;47.740;7.606;2024-02-26T05:44:42;7.50;99.90
7502;DHT22;3792;47.740;7.606;2024-02-26T05:47:10;7.50;99.90
7502;DHT22;3792;47.740;7.606;2024-02-26T05:49:37;7.50;99.90
7502;DHT22;3792;47.740;7.606;2024-02-26T05:52:05;7.50;99.90
7502;DHT22;3792;47.740;7.606;2024-02-26T05:54:32;7.50;99.90
7502;DHT22;3792;47.740;7.606;2024-02-26T05:56:59;7.50;99.90
7502;DHT22;3792;47.740;7.606;2024-02-26T05:59:26;7.50;99.90
7502;DHT22;3792;47.740;7.606;2024-02-26T06:01:53;7.50;99.90
7502;DHT22;3792;47.740;7.606;2024-02-26T06:04:21;7.50;99.90
7502;DHT22;3792;47.740;7.606;2024-02-26T06:06:48;7.60;99.90
7502;DHT22;3792;47.740;7.606;2024-02-26T06:09:15;7.60;99.90
7502;DHT22;3792;47.740;7.606;2024-02-26T06:11:42;7.70;99.90
7502;DHT22;3792;47.740;7.606;2024-02-26T06:14:09;7.60;99.90
7502;DHT22;3792;47.740;7.606;2024-02-26T06:16:38;7.60;99.90
7502;DHT22;3792;47.740;7.606;2024-02-26T06:19:05;7.60;99.90
7502;DHT22;3792;47.740;7.606;2024-02-26T06:21:33;7.70;99.90
7502;DHT22;3792;47.740;7.606;2024-02-26T06:24:01;7.70;99.90
7502;DHT22;3792;47.740;7.606;2024-02-26T06:26:28;7.80;99.90
7502;DHT22;3792;47.740;7.606;2024-02-26T06:28:55;8.00;99.90
7502;DHT22;3792;47.740;7.606;2024-02-26T06:31:23;8.20;99.90
7502;DHT22;3792;47.740;7.606;2024-02-26T06:33:50;8.30;99.90
7502;DHT22;3792;47.740;7.606;2024-02-26T06:36:17;8.20;99.90
7502;DHT22;3792;47.740;7.606;2024-02-26T06:38:45;8.20;99.90
7502;DHT22;3792;47.740;7.606;2024-02-26T06:41:12;8.00;99.90
7502;DHT22;3792;47.740;7.606;2024-02-26T06:43:39;8.00;99.90
7502;DHT22;3792;47.740;7.606;2024-02-26T06:46:06;7.90;99.90
7502;DHT22;3792;47.740;7.606;2024-02-26T06:48:33;7.80;99.90
7502;DHT22;3792;47.740;7.606;2024-02-26T06:51:02;7.80;99.90
7502;DHT22;3792;47.740;7.606;2024-02-26T06:53:29;7.80;99.90
7502;DHT22;3792;47.740;7.606;2024-02-26T06:55:58;7.80;99.90
7502;DHT22;3792;47.740;7.606;2024-02-26T06:58:25;7.80;99.90
7502;DHT22;3792;47.740;7.606;2024-02-26T07:00:52;7.70;99.90
7502;DHT22;3792;47.740;7.606;2024-02-26T07:03:19;7.80;99.90
7502;DHT22;3792;47.740;7.606;2024-02-26T07:05:48;7.80;99.90
7502;DHT22;3792;47.740;7.606;2024-02-26T07:08:15;7.80;99.90
7502;DHT22;3792;47.740;7.606;2024-02-26T07:10:42;7.80;99.90
7502;DHT22;3792;47.740;7.606;2024-02-26T07:13:10;7.80;99.90
7502;DHT22;3792;47.740;7.606;2024-02-26T07:15:37;7.80;99.90
7502;DHT22;3792;47.740;7.606;2024-02-26T07:18:05;7.90;99.90
7502;DHT22;3792;47.740;7.606;2024-02-26T07:20:32;7.90;99.90
7502;DHT22;3792;47.740;7.606;2024-02-26T07:22:59;8.00;99.90
7502;DHT22;3792;47.740;7.606;2024-02-26T07:25:26;8.00;99.90
7502;DHT22;3792;47.740;7.606;2024-02-26T07:27:53;8.10;99.90
7502;DHT22;3792;47.740;7.606;2024-02-26T07:30:21;8.20;99.90
7502;DHT22;3792;47.740;7.606;2024-02-26T07:32:49;8.20;99.90
7502;DHT22;3792;47.740;7.606;2024-02-26T07:35:17;8.20;99.90
7502;DHT22;3792;47.740;7.606;2024-02-26T07:37:44;8.30;99.90
7502;DHT22;3792;47.740;7.606;2024-02-26T07:40:11;8.30;99.90
7502;DHT22;3792;47.740;7.606;2024-02-26T07:42:38;8.30;99.90
7502;DHT22;3792;47.740;7.606;2024-02-26T07:45:06;8.40;99.90
7502;DHT22;3792;47.740;7.606;2024-02-26T07:47:35;8.60;99.90
7502;DHT22;3792;47.740;7.606;2024-02-26T07:50:03;8.60;99.90
7502;DHT22;3792;47.740;7.606;2024-02-26T07:52:31;8.60;99.90
7502;DHT22;3792;47.740;7.606;2024-02-26T07:54:58;8.40;99.90
7502;DHT22;3792;47.740;7.606;2024-02-26T07:57:25;8.40;99.90
7502;DHT22;3792;47.740;7.606;2024-02-26T07:59:52;8.40;99.90
7502;DHT22;3792;47.740;7.606;2024-02-26T08:02:18;8.50;99.90
7502;DHT22;3792;47.740;7.606;2024-02-26T08:04:47;8.40;99.90
7502;DHT22;3792;47.740;7.606;2024-02-26T08:07:14;8.50;99.90
7502;DHT22;3792;47.740;7.606;2024-02-26T08:09:41;8.50;99.90
7502;DHT22;3792;47.740;7.606;2024-02-26T08:12:08;8.40;99.90
7502;DHT22;3792;47.740;7.606;2024-02-26T08:14:35;8.50;99.90
7502;DHT22;3792;47.740;7.606;2024-02-26T08:17:02;8.60;99.90
7502;DHT22;3792;47.740;7.606;2024-02-26T08:19:30;8.60;99.90
7502;DHT22;3792;47.740;7.606;2024-02-26T08:21:58;8.60;99.90
7502;DHT22;3792;47.740;7.606;2024-02-26T08:24:25;8.50;99.90
7502;DHT22;3792;47.740;7.606;2024-02-26T08:26:53;8.40;99.90
7502;DHT22;3792;47.740;7.606;2024-02-26T08:29:20;8.50;99.90
7502;DHT22;3792;47.740;7.606;2024-02-26T08:31:47;8.50;99.90
7502;DHT22;3792;47.740;7.606;2024-02-26T08:34:14;8.50;99.90
7502;DHT22;3792;47.740;7.606;2024-02-26T08:36:41;8.50;99.90
7502;DHT22;3792;47.740;7.606;2024-02-26T08:39:10;8.50;99.90
7502;DHT22;3792;47.740;7.606;2024-02-26T08:41:39;8.50;99.90
7502;DHT22;3792;47.740;7.606;2024-02-26T08:44:06;8.40;99.90
7502;DHT22;3792;47.740;7.606;2024-02-26T08:46:33;8.50;99.90
7502;DHT22;3792;47.740;7.606;2024-02-26T08:49:00;8.50;99.90
7502;DHT22;3792;47.740;7.606;2024-02-26T08:51:27;8.50;99.90
7502;DHT22;3792;47.740;7.606;2024-02-26T08:53:54;8.50;99.90
7502;DHT22;3792;47.740;7.606;2024-02-26T08:56:23;8.60;99.90
7502;DHT22;3792;47.740;7.606;2024-02-26T08:58:50;8.60;99.90
7502;DHT22;3792;47.740;7.606;2024-02-26T09:01:19;8.70;99.90
7502;DHT22;3792;47.740;7.606;2024-02-26T09:03:46;8.70;99.90
7502;DHT22;3792;47.740;7.606;2024-02-26T09:06:15;8.70;99.90
7502;DHT22;3792;47.740;7.606;2024-02-26T09:08:42;8.90;99.90
7502;DHT22;3792;47.740;7.606;2024-02-26T09:11:09;8.90;99.90
7502;DHT22;3792;47.740;7.606;2024-02-26T09:13:38;8.90;99.90
7502;DHT22;3792;47.740;7.606;2024-02-26T09:16:05;9.00;99.90
7502;DHT22;3792;47.740;7.606;2024-02-26T09:18:32;9.10;99.90
7502;DHT22;3792;47.740;7.606;2024-02-26T09:20:59;9.20;99.90
7502;DHT22;3792;47.740;7.606;2024-02-26T09:23:26;9.20;99.90
7502;DHT22;3792;47.740;7.606;2024-02-26T09:25:53;9.20;99.90
7502;DHT22;3792;47.740;7.606;2024-02-26T09:28:20;9.20;99.90
7502;DHT22;3792;47.740;7.606;2024-02-26T09:30:49;9.20;99.90
7502;DHT22;3792;47.740;7.606;2024-02-26T09:33:16;9.30;99.90
7502;DHT22;3792;47.740;7.606;2024-02-26T09:35:43;9.40;99.90
7502;DHT22;3792;47.740;7.606;2024-02-26T09:38:10;9.40;99.90
7502;DHT22;3792;47.740;7.606;2024-02-26T09:40:39;9.40;99.90
7502;DHT22;3792;47.740;7.606;2024-02-26T09:43:07;9.50;99.90
7502;DHT22;3792;47.740;7.606;2024-02-26T09:45:37;9.60;99.90
7502;DHT22;3792;47.740;7.606;2024-02-26T09:48:08;9.60;99.90
7502;DHT22;3792;47.740;7.606;2024-02-26T09:50:40;9.70;99.90
7502;DHT22;3792;47.740;7.606;2024-02-26T09:53:08;9.70;99.90
7502;DHT22;3792;47.740;7.606;2024-02-26T09:55:37;9.70;99.90
7502;DHT22;3792;47.740;7.606;2024-02-26T09:58:05;9.80;99.90
7502;DHT22;3792;47.740;7.606;2024-02-26T10:00:37;10.00;99.90
7502;DHT22;3792;47.740;7.606;2024-02-26T10:03:09;10.10;99.90
7502;DHT22;3792;47.740;7.606;2024-02-26T10:05:41;10.30;99.90
7502;DHT22;3792;47.740;7.606;2024-02-26T10:08:09;10.50;99.90
7502;DHT22;3792;47.740;7.606;2024-02-26T10:10:37;10.60;99.90
7502;DHT22;3792;47.740;7.606;2024-02-26T10:13:07;10.70;99.90
7502;DHT22;3792;47.740;7.606;2024-02-26T10:15:37;10.80;99.90
7502;DHT22;3792;47.740;7.606;2024-02-26T10:18:06;10.90;99.90
7502;DHT22;3792;47.740;7.606;2024-02-26T10:20:33;10.90;99.90
7502;DHT22;3792;47.740;7.606;2024-02-26T10:23:02;10.90;99.90
7502;DHT22;3792;47.740;7.606;2024-02-26T10:25:30;10.90;99.90
7502;DHT22;3792;47.740;7.606;2024-02-26T10:28:00;11.00;99.90
7502;DHT22;3792;47.740;7.606;2024-02-26T10:30:28;11.00;99.90
7502;DHT22;3792;47.740;7.606;2024-02-26T10:32:56;10.90;99.90
7502;DHT22;3792;47.740;7.606;2024-02-26T10:35:25;10.80;99.90
7502;DHT22;3792;47.740;7.606;2024-02-26T10:37:53;10.80;99.90
7502;DHT22;3792;47.740;7.606;2024-02-26T10:40:20;10.70;99.90
7502;DHT22;3792;47.740;7.606;2024-02-26T10:42:47;10.70;99.90
7502;DHT22;3792;47.740;7.606;2024-02-26T10:45:14;10.70;99.90
7502;DHT22;3792;47.740;7.606;2024-02-26T10:47:41;10.70;99.90
7502;DHT22;3792;47.740;7.606;2024-02-26T10:50:09;10.70;99.90
7502;DHT22;3792;47.740;7.606;2024-02-26T10:52:37;10.80;99.90
7502;DHT22;3792;47.740;7.606;2024-02-26T10:55:05;11.00;99.90
7502;DHT22;3792;47.740;7.606;2024-02-26T10:57:34;11.20;99.90
7502;DHT22;3792;47.740;7.606;2024-02-26T11:00:04;11.60;99.90
7502;DHT22;3792;47.740;7.606;2024-02-26T11:02:33;12.10;99.90
7502;DHT22;3792;47.740;7.606;2024-02-26T11:05:01;12.30;99.90
7502;DHT22;3792;47.740;7.606;2024-02-26T11:07:30;12.50;99.90
7502;DHT22;3792;47.740;7.606;2024-02-26T11:09:59;12.80;99.90
7502;DHT22;3792;47.740;7.606;2024-02-26T11:12:28;12.90;99.90
7502;DHT22;3792;47.740;7.606;2024-02-26T11:14:56;12.80;99.90
7502;DHT22;3792;47.740;7.606;2024-02-26T11:17:26;12.60;99.90
7502;DHT22;3792;47.740;7.606;2024-02-26T11:19:55;12.50;99.90
7502;DHT22;3792;47.740;7.606;2024-02-26T11:22:23;12.50;99.90
7502;DHT22;3792;47.740;7.606;2024-02-26T11:24:52;12.60;99.90
7502;DHT22;3792;47.740;7.606;2024-02-26T11:27:24;12.50;99.90
7502;DHT22;3792;47.740;7.606;2024-02-26T11:29:57;12.50;99.90
7502;DHT22;3792;47.740;7.606;2024-02-26T11:32:26;12.50;99.90
7502;DHT22;3792;47.740;7.606;2024-02-26T11:34:56;12.60;99.90
7502;DHT22;3792;47.740;7.606;2024-02-26T11:37:24;12.80;99.90
7502;DHT22;3792;47.740;7.606;2024-02-26T11:39:52;12.80;99.90
7502;DHT22;3792;47.740;7.606;2024-02-26T11:42:26;12.90;99.90
7502;DHT22;3792;47.740;7.606;2024-02-26T11:44:54;12.90;99.90
7502;DHT22;3792;47.740;7.606;2024-02-26T11:47:27;13.10;99.90
7502;DHT22;3792;47.740;7.606;2024-02-26T11:49:54;12.90;99.90
7502;DHT22;3792;47.740;7.606;2024-02-26T11:52:21;13.20;99.90
7502;DHT22;3792;47.740;7.606;2024-02-26T11:54:49;13.50;99.90
7502;DHT22;3792;47.740;7.606;2024-02-26T11:57:23;13.80;99.90
7502;DHT22;3792;47.740;7.606;2024-02-26T11:59:52;13.80;99.90
7502;DHT22;3792;47.740;7.606;2024-02-26T12:02:44;13.40;99.90
7502;DHT22;3792;47.740;7.606;2024-02-26T12:05:12;13.20;99.90
7502;DHT22;3792;47.740;7.606;2024-02-26T12:07:43;12.90;99.90
7502;DHT22;3792;47.740;7.606;2024-02-26T12:10:25;12.70;99.90
7502;DHT22;3792;47.740;7.606;2024-02-26T12:12:58;12.70;99.90
7502;DHT22;3792;47.740;7.606;2024-02-26T12:15:32;12.70;99.90
7502;DHT22;3792;47.740;7.606;2024-02-26T12:18:01;12.60;99.90
7502;DHT22;3792;47.740;7.606;2024-02-26T12:20:28;12.60;99.90
7502;DHT22;3792;47.740;7.606;2024-02-26T12:22:56;12.90;99.90
7502;DHT22;3792;47.740;7.606;2024-02-26T12:25:24;13.50;99.90
7502;DHT22;3792;47.740;7.606;2024-02-26T12:27:52;14.00;99.90
7502;DHT22;3792;47.740;7.606;2024-02-26T12:30:19;14.20;99.90
7502;DHT22;3792;47.740;7.606;2024-02-26T12:32:48;14.50;99.90
7502;DHT22;3792;47.740;7.606;2024-02-26T12:35:15;14.50;99.90
7502;DHT22;3792;47.740;7.606;2024-02-26T12:37:43;14.40;99.90
7502;DHT22;3792;47.740;7.606;2024-02-26T12:40:10;14.20;99.90
7502;DHT22;3792;47.740;7.606;2024-02-26T12:42:38;13.80;99.90
7502;DHT22;3792;47.740;7.606;2024-02-26T12:45:07;13.70;99.90
7502;DHT22;3792;47.740;7.606;2024-02-26T12:47:36;13.70;99.90
7502;DHT22;3792;47.740;7.606;2024-02-26T12:50:06;13.50;99.90
7502;DHT22;3792;47.740;7.606;2024-02-26T12:52:34;13.40;99.90
7502;DHT22;3792;47.740;7.606;2024-02-26T12:55:02;13.50;99.90
7502;DHT22;3792;47.740;7.606;2024-02-26T12:57:30;13.40;99.90
7502;DHT22;3792;47.740;7.606;2024-02-26T12:59:58;13.60;99.90
7502;DHT22;3792;47.740;7.606;2024-02-26T13:02:26;13.70;99.90
7502;DHT22;3792;47.740;7.606;2024-02-26T13:04:54;13.80;99.90
7502;DHT22;3792;47.740;7.606;2024-02-26T13:07:23;14.00;99.90
7502;DHT22;3792;47.740;7.606;2024-02-26T13:09:51;14.10;99.90
7502;DHT22;3792;47.740;7.606;2024-02-26T13:12:19;14.10;99.90
7502;DHT22;3792;47.740;7.606;2024-02-26T13:14:46;14.30;99.90
7502;DHT22;3792;47.740;7.606;2024-02-26T13:17:13;14.50;99.90
7502;DHT22;3792;47.740;7.606;2024-02-26T13:19:50;14.60;99.90
7502;DHT22;3792;47.740;7.606;2024-02-26T13:22:20;14.70;99.90
7502;DHT22;3792;47.740;7.606;2024-02-26T13:24:55;14.90;99.90
7502;DHT22;3792;47.740;7.606;2024-02-26T13:27:22;14.70;99.90
7502;DHT22;3792;47.740;7.606;2024-02-26T13:30:03;14.90;99.90
7502;DHT22;3792;47.740;7.606;2024-02-26T13:32:32;15.10;99.90
7502;DHT22;3792;47.740;7.606;2024-02-26T13:35:06;15.30;99.90
7502;DHT22;3792;47.740;7.606;2024-02-26T13:37:34;15.20;99.90
7502;DHT22;3792;47.740;7.606;2024-02-26T13:40:05;15.60;99.90
7502;DHT22;3792;47.740;7.606;2024-02-26T13:42:32;16.10;99.90
7502;DHT22;3792;47.740;7.606;2024-02-26T13:44:59;16.50;99.90
7502;DHT22;3792;47.740;7.606;2024-02-26T13:47:26;16.80;99.90
7502;DHT22;3792;47.740;7.606;2024-02-26T13:49:54;17.30;99.90
7502;DHT22;3792;47.740;7.606;2024-02-26T13:52:22;17.30;99.90
7502;DHT22;3792;47.740;7.606;2024-02-26T13:54:49;17.50;99.90
7502;DHT22;3792;47.740;7.606;2024-02-26T13:57:18;17.50;99.90
7502;DHT22;3792;47.740;7.606;2024-02-26T13:59:45;17.60;99.90
7502;DHT22;3792;47.740;7.606;2024-02-26T14:02:13;17.70;99.90
7502;DHT22;3792;47.740;7.606;2024-02-26T14:04:40;17.90;99.90
7502;DHT22;3792;47.740;7.606;2024-02-26T14:07:07;18.20;99.90
7502;DHT22;3792;47.740;7.606;2024-02-26T14:09:34;18.40;99.90
7502;DHT22;3792;47.740;7.606;2024-02-26T14:12:01;18.40;99.90
7502;DHT22;3792;47.740;7.606;2024-02-26T14:14:29;18.60;99.90
7502;DHT22;3792;47.740;7.606;2024-02-26T14:16:58;18.60;99.90
7502;DHT22;3792;47.740;7.606;2024-02-26T14:19:26;18.10;99.90
7502;DHT22;3792;47.740;7.606;2024-02-26T14:21:53;17.60;99.90
7502;DHT22;3792;47.740;7.606;2024-02-26T14:24:20;17.60;99.90
7502;DHT22;3792;47.740;7.606;2024-02-26T14:26:47;17.80;99.90
7502;DHT22;3792;47.740;7.606;2024-02-26T14:29:14;17.80;99.90
7502;DHT22;3792;47.740;7.606;2024-02-26T14:31:43;17.90;99.90
7502;DHT22;3792;47.740;7.606;2024-02-26T14:34:10;18.20;99.90
7502;DHT22;3792;47.740;7.606;2024-02-26T14:36:37;18.20;99.90
7502;DHT22;3792;47.740;7.606;2024-02-26T14:39:04;18.10;99.90
7502;DHT22;3792;47.740;7.606;2024-02-26T14:41:31;18.10;99.90
7502;DHT22;3792;47.740;7.606;2024-02-26T14:43:58;18.10;99.90
7502;DHT22;3792;47.740;7.606;2024-02-26T14:46:25;18.30;99.90
7502;DHT22;3792;47.740;7.606;2024-02-26T14:48:54;18.40;99.90
7502;DHT22;3792;47.740;7.606;2024-02-26T14:51:22;18.50;99.90
7502;DHT22;3792;47.740;7.606;2024-02-26T14:53:49;18.40;99.90
7502;DHT22;3792;47.740;7.606;2024-02-26T14:56:16;18.30;99.90
7502;DHT22;3792;47.740;7.606;2024-02-26T14:58:44;18.10;99.90
7502;DHT22;3792;47.740;7.606;2024-02-26T15:01:11;18.30;99.90
7502;DHT22;3792;47.740;7.606;2024-02-26T15:03:38;18.10;99.90
7502;DHT22;3792;47.740;7.606;2024-02-26T15:06:07;18.10;99.90
7502;DHT22;3792;47.740;7.606;2024-02-26T15:08:34;18.20;99.90
7502;DHT22;3792;47.740;7.606;2024-02-26T15:11:01;18.50;99.90
7502;DHT22;3792;47.740;7.606;2024-02-26T15:13:28;18.50;99.90
7502;DHT22;3792;47.740;7.606;2024-02-26T15:15:56;18.50;99.90
7502;DHT22;3792;47.740;7.606;2024-02-26T15:18:23;18.60;99.90
7502;DHT22;3792;47.740;7.606;2024-02-26T15:20:50;18.60;99.90
7502;DHT22;3792;47.740;7.606;2024-02-26T15:23:18;18.60;99.90
7502;DHT22;3792;47.740;7.606;2024-02-26T15:25:45;18.60;99.90
7502;DHT22;3792;47.740;7.606;2024-02-26T15:28:12;18.30;99.90
7502;DHT22;3792;47.740;7.606;2024-02-26T15:30:40;18.40;99.90
7502;DHT22;3792;47.740;7.606;2024-02-26T15:33:08;18.70;99.90
7502;DHT22;3792;47.740;7.606;2024-02-26T15:35:35;19.00;99.90
7502;DHT22;3792;47.740;7.606;2024-02-26T15:38:03;19.20;99.90
7502;DHT22;3792;47.740;7.606;2024-02-26T15:40:32;19.60;99.90
7502;DHT22;3792;47.740;7.606;2024-02-26T15:42:59;19.90;99.90
7502;DHT22;3792;47.740;7.606;2024-02-26T15:45:26;19.70;99.90
7502;DHT22;3792;47.740;7.606;2024-02-26T15:47:57;19.40;99.90
7502;DHT22;3792;47.740;7.606;2024-02-26T15:50:24;18.80;99.90
7502;DHT22;3792;47.740;7.606;2024-02-26T15:52:51;18.30;99.90
7502;DHT22;3792;47.740;7.606;2024-02-26T15:55:19;17.70;99.90
7502;DHT22;3792;47.740;7.606;2024-02-26T15:57:48;17.40;99.90
7502;DHT22;3792;47.740;7.606;2024-02-26T16:00:15;17.00;99.90
7502;DHT22;3792;47.740;7.606;2024-02-26T16:02:42;16.70;99.90
7502;DHT22;3792;47.740;7.606;2024-02-26T16:05:09;16.50;99.90
7502;DHT22;3792;47.740;7.606;2024-02-26T16:07:41;16.40;99.90
7502;DHT22;3792;47.740;7.606;2024-02-26T16:10:10;16.40;99.90
7502;DHT22;3792;47.740;7.606;2024-02-26T16:12:39;16.50;99.90
7502;DHT22;3792;47.740;7.606;2024-02-26T16:15:10;16.50;99.90